Time;durP1;ratioP1;P1;durP2;ratioP2;P2;SDS_P1;SDS_P2;PMS_P1;PMS_P2;Temp;Humidity;BMP_temperature;BMP_pressure;BME280_temperature;BME280_humidity;BME280_pressure;Samples;Min_cycle;Max_cycle;Signal;HPM_P1;HPM_P2
2022/07/30 19:24:07;;;;;;;1.33;1.23;;;19.60;99.90;;;;;;7385446;19;20332;-72
2022/07/30 19:26:33;;;;;;;1.70;1.40;;;19.30;99.90;;;;;;7389873;19;20902;-72
2022/07/30 19:28:59;;;;;;;3.80;1.27;;;19.30;99.90;;;;;;7385573;19;21055;-72
2022/07/30 19:31:25;;;;;;;1.42;1.33;;;19.30;99.90;;;;;;7389980;19;20335;-72
2022/07/30 19:33:50;;;;;;;1.33;1.10;;;19.30;99.90;;;;;;7380142;19;20364;-72
2022/07/30 19:36:19;;;;;;;1.58;1.48;;;19.30;99.90;;;;;;7383460;19;20392;-74
2022/07/30 19:38:48;;;;;;;1.87;1.50;;;19.30;99.90;;;;;;6089577;19;10001249;-72
2022/07/30 19:41:15;;;;;;;1.80;1.30;;;19.20;99.90;;;;;;7388651;19;20990;-73
2022/07/30 19:43:41;;;;;;;1.13;1.10;;;19.20;99.90;;;;;;7372449;19;20671;-73
2022/07/30 19:46:06;;;;;;;1.58;1.48;;;19.20;99.90;;;;;;6077532;19;10001477;-73
2022/07/30 19:48:34;;;;;;;1.73;1.63;;;19.30;99.90;;;;;;7383759;19;20683;-73
2022/07/30 19:50:59;;;;;;;1.60;1.50;;;19.20;99.90;;;;;;7377769;19;20336;-73
2022/07/30 19:53:25;;;;;;;1.70;1.60;;;19.20;99.90;;;;;;7380256;19;20398;-73
2022/07/30 19:55:51;;;;;;;1.40;1.30;;;19.10;99.90;;;;;;7379401;19;21002;-73
2022/07/30 19:58:16;;;;;;;1.90;1.80;;;19.10;99.90;;;;;;7385236;19;20327;-73
2022/07/30 20:00:45;;;;;;;2.70;2.40;;;19.20;99.90;;;;;;7380452;19;20323;-73
2022/07/30 20:03:11;;;;;;;4.00;2.15;;;19.10;99.90;;;;;;7371116;19;20895;-73
2022/07/30 20:05:38;;;;;;;2.40;1.48;;;19.00;99.90;;;;;;7369167;19;20636;-73
2022/07/30 20:08:03;;;;;;;1.20;1.20;;;19.00;99.90;;;;;;7381073;19;20350;-73
2022/07/30 20:10:29;;;;;;;1.35;1.25;;;19.00;99.90;;;;;;7381920;19;20368;-73
2022/07/30 20:12:54;;;;;;;2.07;1.90;;;19.00;99.90;;;;;;7378714;19;20379;-73
2022/07/30 20:15:20;;;;;;;2.30;2.10;;;19.00;99.90;;;;;;7382984;19;21069;-71
2022/07/30 20:17:46;;;;;;;3.75;1.85;;;18.90;99.90;;;;;;7382907;19;20332;-71
2022/07/30 20:20:11;;;;;;;1.92;1.70;;;18.90;99.90;;;;;;7389969;19;20355;-71
2022/07/30 20:22:37;;;;;;;1.73;1.63;;;18.80;99.90;;;;;;7378108;19;20416;-71
2022/07/30 20:25:04;;;;;;;2.10;1.90;;;18.70;99.90;;;;;;7390923;19;20348;-71
2022/07/30 20:27:30;;;;;;;1.67;1.55;;;18.60;99.90;;;;;;7386261;19;20348;-72
2022/07/30 20:29:55;;;;;;;1.98;1.80;;;18.60;99.90;;;;;;7390335;19;20347;-71
2022/07/30 20:32:22;;;;;;;1.65;1.55;;;18.50;99.90;;;;;;7380420;19;21030;-71
2022/07/30 20:34:47;;;;;;;1.52;1.42;;;18.40;99.90;;;;;;7365857;19;20348;-71
2022/07/30 20:37:13;;;;;;;1.53;1.43;;;18.30;99.90;;;;;;7354320;19;21091;-71
2022/07/30 20:39:39;;;;;;;1.87;1.70;;;18.20;99.90;;;;;;7357213;19;20348;-71
2022/07/30 20:42:07;;;;;;;1.60;1.50;;;18.10;99.90;;;;;;7353970;19;20352;-70
2022/07/30 20:44:34;;;;;;;1.58;1.48;;;17.90;99.90;;;;;;7357269;19;20952;-69
2022/07/30 20:47:00;;;;;;;1.60;1.50;;;17.80;99.90;;;;;;7352832;19;20372;-70
2022/07/30 20:49:25;;;;;;;1.95;1.80;;;17.70;99.90;;;;;;7357198;19;20893;-70
2022/07/30 20:51:51;;;;;;;2.30;1.65;;;17.70;99.90;;;;;;7351415;19;21255;-70
2022/07/30 20:54:17;;;;;;;1.85;1.52;;;17.60;99.90;;;;;;7355973;19;20360;-70
2022/07/30 20:56:42;;;;;;;1.67;1.57;;;17.60;99.90;;;;;;7349963;19;20383;-71
2022/07/30 20:59:08;;;;;;;1.40;1.30;;;17.60;99.90;;;;;;7351831;19;20446;-71
2022/07/30 21:01:34;;;;;;;1.60;1.50;;;17.50;99.90;;;;;;7351670;19;20356;-71
2022/07/30 21:04:00;;;;;;;1.47;1.37;;;17.40;99.90;;;;;;7345641;19;20377;-70
2022/07/30 21:06:26;;;;;;;1.75;1.65;;;17.20;99.90;;;;;;7349770;19;20353;-71
2022/07/30 21:08:52;;;;;;;2.47;1.87;;;17.20;99.90;;;;;;7358052;19;20415;-71
2022/07/30 21:11:17;;;;;;;1.60;1.50;;;17.10;99.90;;;;;;7352838;19;20348;-71
2022/07/30 21:13:43;;;;;;;1.70;1.60;;;17.10;99.90;;;;;;7350216;19;21489;-71
2022/07/30 21:16:09;;;;;;;1.77;1.67;;;17.00;99.90;;;;;;7353309;19;20349;-73
2022/07/30 21:18:34;;;;;;;1.50;1.40;;;17.00;99.90;;;;;;7357064;19;21069;-72
2022/07/30 21:21:00;;;;;;;1.40;1.30;;;16.90;99.90;;;;;;7352949;19;20344;-73
2022/07/30 21:23:26;;;;;;;1.60;1.50;;;16.90;99.90;;;;;;7353224;19;20390;-73
2022/07/30 21:25:53;;;;;;;1.20;1.20;;;16.90;99.90;;;;;;7353768;19;20992;-71
2022/07/30 21:28:19;;;;;;;1.40;1.30;;;16.90;99.90;;;;;;7356883;19;20768;-71
2022/07/30 21:30:45;;;;;;;1.50;1.40;;;16.80;99.90;;;;;;7355243;19;20348;-70
2022/07/30 21:33:10;;;;;;;1.30;1.20;;;16.70;99.90;;;;;;7357608;19;20364;-75
2022/07/30 21:35:36;;;;;;;1.60;1.43;;;16.60;99.90;;;;;;7353976;19;20333;-76
2022/07/30 21:38:01;;;;;;;1.30;1.20;;;16.50;99.90;;;;;;7358451;19;20793;-77
2022/07/30 21:40:28;;;;;;;1.35;1.25;;;16.40;99.90;;;;;;7355364;19;20368;-77
2022/07/30 21:42:53;;;;;;;1.48;1.30;;;16.40;99.90;;;;;;7357845;19;20365;-78
2022/07/30 21:45:19;;;;;;;1.50;1.40;;;16.40;99.90;;;;;;7355744;19;21023;-78
2022/07/30 21:47:45;;;;;;;1.20;1.20;;;16.40;99.90;;;;;;7355954;19;20347;-77
2022/07/30 21:50:12;;;;;;;1.48;1.38;;;16.30;99.90;;;;;;7358362;19;20375;-78
2022/07/30 21:52:37;;;;;;;1.55;1.45;;;16.20;99.90;;;;;;7353449;19;20337;-78
2022/07/30 21:55:03;;;;;;;1.10;1.10;;;16.10;99.90;;;;;;7356538;19;20957;-76
2022/07/30 21:57:29;;;;;;;1.73;1.27;;;16.00;99.90;;;;;;7355334;19;20396;-75
2022/07/30 21:59:55;;;;;;;1.60;1.23;;;16.00;99.90;;;;;;7360784;19;20340;-78
2022/07/30 22:02:22;;;;;;;1.10;1.10;;;16.00;99.90;;;;;;7352705;19;20349;-77
2022/07/30 22:04:47;;;;;;;1.50;1.40;;;16.00;99.90;;;;;;7357736;19;20336;-77
2022/07/30 22:07:13;;;;;;;2.00;1.37;;;16.00;99.90;;;;;;7352667;19;20341;-77
2022/07/30 22:09:39;;;;;;;1.48;1.38;;;16.10;99.90;;;;;;7356469;19;20388;-78
2022/07/30 22:12:05;;;;;;;1.40;1.30;;;16.10;99.90;;;;;;7353898;19;20367;-76
2022/07/30 22:14:30;;;;;;;1.60;1.40;;;16.00;99.90;;;;;;7356539;19;20790;-78
2022/07/30 22:16:56;;;;;;;1.40;1.30;;;16.00;99.90;;;;;;7354967;19;20431;-75
2022/07/30 22:19:22;;;;;;;1.47;1.37;;;15.90;99.90;;;;;;7358720;19;20355;-78
2022/07/30 22:21:48;;;;;;;1.40;1.30;;;15.90;99.90;;;;;;7352229;19;20313;-77
2022/07/30 22:24:17;;;;;;;1.55;1.45;;;15.80;99.90;;;;;;7354943;19;20336;-78
2022/07/30 22:26:43;;;;;;;1.50;1.40;;;15.80;99.90;;;;;;7354237;19;20752;-75
2022/07/30 22:29:08;;;;;;;1.65;1.55;;;15.70;99.90;;;;;;7358013;19;20371;-78
2022/07/30 22:31:34;;;;;;;1.50;1.40;;;15.60;99.90;;;;;;7355745;19;20563;-77
2022/07/30 22:34:00;;;;;;;1.53;1.43;;;15.60;99.90;;;;;;7363143;19;20372;-75
2022/07/30 22:36:25;;;;;;;1.50;1.40;;;15.60;99.90;;;;;;7355516;19;20489;-77
2022/07/30 22:38:51;;;;;;;2.20;1.60;;;15.60;99.90;;;;;;7356307;19;20356;-78
2022/07/30 22:41:16;;;;;;;1.40;1.30;;;15.60;99.90;;;;;;7354954;19;21175;-76
2022/07/30 22:43:42;;;;;;;1.20;1.20;;;15.60;99.90;;;;;;7352065;19;20903;-76
2022/07/30 22:46:08;;;;;;;1.42;1.33;;;15.60;99.90;;;;;;7355237;19;20414;-76
2022/07/30 22:48:33;;;;;;;1.00;1.00;;;15.60;99.90;;;;;;7357908;19;20809;-78
2022/07/30 22:50:59;;;;;;;1.10;1.10;;;15.60;99.90;;;;;;7351222;19;20933;-77
2022/07/30 22:53:25;;;;;;;2.10;1.50;;;15.60;99.90;;;;;;7350459;19;20340;-75
2022/07/30 22:55:51;;;;;;;1.45;1.40;;;15.50;99.90;;;;;;7350007;19;20645;-74
2022/07/30 22:58:18;;;;;;;2.37;2.17;;;15.50;99.90;;;;;;7350564;19;20381;-74
2022/07/30 23:00:43;;;;;;;1.60;1.50;;;15.40;99.90;;;;;;7349467;19;20348;-79
2022/07/30 23:03:09;;;;;;;1.50;1.40;;;15.40;99.90;;;;;;7351455;19;20347;-78
2022/07/30 23:05:35;;;;;;;4.00;1.48;;;15.40;99.90;;;;;;7349979;19;20887;-76
2022/07/30 23:08:01;;;;;;;1.20;1.20;;;15.40;99.90;;;;;;7354973;19;20331;-78
2022/07/30 23:10:26;;;;;;;1.40;1.30;;;15.40;99.90;;;;;;7352177;19;20396;-78
2022/07/30 23:12:52;;;;;;;1.13;1.13;;;15.40;99.90;;;;;;7350559;19;20781;-75
2022/07/30 23:15:18;;;;;;;1.73;1.40;;;15.40;99.90;;;;;;7354458;19;20357;-76
2022/07/30 23:17:44;;;;;;;1.30;1.20;;;15.40;99.90;;;;;;7351907;19;20405;-78
2022/07/30 23:20:11;;;;;;;1.40;1.30;;;15.40;99.90;;;;;;7357142;19;20367;-77
2022/07/30 23:22:37;;;;;;;1.55;1.45;;;15.30;99.90;;;;;;7349081;19;20356;-75
2022/07/30 23:25:04;;;;;;;1.80;1.70;;;15.20;99.90;;;;;;7351152;19;20336;-78
2022/07/30 23:27:30;;;;;;;1.40;1.30;;;15.10;99.90;;;;;;7349691;19;21299;-76
2022/07/30 23:29:56;;;;;;;1.45;1.35;;;15.10;99.90;;;;;;7355216;19;20381;-75
2022/07/30 23:32:21;;;;;;;1.50;1.40;;;15.10;99.90;;;;;;7348304;19;20340;-78
2022/07/30 23:34:47;;;;;;;1.75;1.42;;;15.10;99.90;;;;;;7353794;19;20328;-77
2022/07/30 23:37:13;;;;;;;1.23;1.23;;;15.00;99.90;;;;;;7351288;19;20351;-78
2022/07/30 23:39:38;;;;;;;1.40;1.30;;;15.00;99.90;;;;;;7352607;19;20329;-77
2022/07/30 23:42:04;;;;;;;1.30;1.20;;;14.90;99.90;;;;;;7350510;19;20344;-76
2022/07/30 23:44:29;;;;;;;1.40;1.30;;;15.00;99.90;;;;;;7354551;19;20696;-76
2022/07/30 23:46:55;;;;;;;1.20;1.20;;;14.90;99.90;;;;;;7350541;19;20328;-76
2022/07/30 23:49:22;;;;;;;1.70;1.30;;;14.90;99.90;;;;;;7356842;19;21250;-77
2022/07/30 23:51:49;;;;;;;1.67;1.48;;;14.90;99.90;;;;;;7353742;19;20476;-77
2022/07/30 23:54:15;;;;;;;1.60;1.50;;;14.90;99.90;;;;;;7355233;19;20365;-75
2022/07/30 23:56:41;;;;;;;1.40;1.30;;;14.90;99.90;;;;;;7351468;19;20329;-77
2022/07/30 23:59:07;;;;;;;1.60;1.50;;;14.80;99.90;;;;;;7355316;19;20348;-76
